sensor_id;sensor_type;location;lat;lon;timestamp;P1;durP1;ratioP1;P2;durP2;ratioP2
30301;SDS011;17111;52.130;5.028;2023-12-14T00:00:50;49.42;;;34.00;;
30301;SDS011;17111;52.130;5.028;2023-12-14T00:03:16;52.10;;;34.35;;
30301;SDS011;17111;52.130;5.028;2023-12-14T00:05:43;52.42;;;33.25;;
30301;SDS011;17111;52.130;5.028;2023-12-14T00:08:09;47.40;;;32.60;;
30301;SDS011;17111;52.130;5.028;2023-12-14T00:10:36;50.17;;;33.67;;
30301;SDS011;17111;52.130;5.028;2023-12-14T00:13:03;46.78;;;31.13;;
30301;SDS011;17111;52.130;5.028;2023-12-14T00:15:30;46.83;;;31.40;;
30301;SDS011;17111;52.130;5.028;2023-12-14T00:17:57;46.05;;;29.88;;
30301;SDS011;17111;52.130;5.028;2023-12-14T00:20:24;48.38;;;30.83;;
30301;SDS011;17111;52.130;5.028;2023-12-14T00:22:50;43.55;;;28.65;;
30301;SDS011;17111;52.130;5.028;2023-12-14T00:25:17;44.88;;;30.80;;
30301;SDS011;17111;52.130;5.028;2023-12-14T00:27:44;43.45;;;29.02;;
30301;SDS011;17111;52.130;5.028;2023-12-14T00:30:10;44.25;;;29.40;;
30301;SDS011;17111;52.130;5.028;2023-12-14T00:32:38;39.65;;;26.83;;
30301;SDS011;17111;52.130;5.028;2023-12-14T00:35:04;41.50;;;28.42;;
30301;SDS011;17111;52.130;5.028;2023-12-14T00:37:31;41.30;;;27.33;;
30301;SDS011;17111;52.130;5.028;2023-12-14T00:39:58;38.88;;;27.23;;
30301;SDS011;17111;52.130;5.028;2023-12-14T00:42:24;42.97;;;28.90;;
30301;SDS011;17111;52.130;5.028;2023-12-14T00:44:51;40.85;;;27.27;;
30301;SDS011;17111;52.130;5.028;2023-12-14T00:47:17;39.05;;;26.92;;
30301;SDS011;17111;52.130;5.028;2023-12-14T00:49:44;39.13;;;26.52;;
30301;SDS011;17111;52.130;5.028;2023-12-14T00:52:11;35.75;;;25.40;;
30301;SDS011;17111;52.130;5.028;2023-12-14T00:54:37;36.90;;;25.63;;
30301;SDS011;17111;52.130;5.028;2023-12-14T00:57:04;38.05;;;25.67;;
30301;SDS011;17111;52.130;5.028;2023-12-14T00:59:30;37.10;;;25.00;;
30301;SDS011;17111;52.130;5.028;2023-12-14T01:01:57;36.80;;;24.63;;
30301;SDS011;17111;52.130;5.028;2023-12-14T01:04:24;34.90;;;23.90;;
30301;SDS011;17111;52.130;5.028;2023-12-14T01:06:51;34.17;;;22.38;;
30301;SDS011;17111;52.130;5.028;2023-12-14T01:09:17;35.28;;;23.85;;
30301;SDS011;17111;52.130;5.028;2023-12-14T01:11:44;31.67;;;22.52;;
30301;SDS011;17111;52.130;5.028;2023-12-14T01:14:11;37.55;;;23.85;;
30301;SDS011;17111;52.130;5.028;2023-12-14T01:16:37;32.90;;;22.88;;
30301;SDS011;17111;52.130;5.028;2023-12-14T01:19:04;33.70;;;22.75;;
30301;SDS011;17111;52.130;5.028;2023-12-14T01:21:34;33.85;;;23.23;;
30301;SDS011;17111;52.130;5.028;2023-12-14T01:24:01;31.17;;;21.50;;
30301;SDS011;17111;52.130;5.028;2023-12-14T01:26:27;33.13;;;22.88;;
30301;SDS011;17111;52.130;5.028;2023-12-14T01:28:54;30.95;;;21.63;;
30301;SDS011;17111;52.130;5.028;2023-12-14T01:31:21;32.15;;;21.67;;
30301;SDS011;17111;52.130;5.028;2023-12-14T01:33:51;30.92;;;20.88;;
30301;SDS011;17111;52.130;5.028;2023-12-14T01:36:21;31.98;;;21.45;;
30301;SDS011;17111;52.130;5.028;2023-12-14T01:38:48;29.15;;;20.20;;
30301;SDS011;17111;52.130;5.028;2023-12-14T01:41:15;27.75;;;19.95;;
30301;SDS011;17111;52.130;5.028;2023-12-14T01:43:41;29.88;;;20.10;;
30301;SDS011;17111;52.130;5.028;2023-12-14T01:46:08;28.33;;;19.58;;
30301;SDS011;17111;52.130;5.028;2023-12-14T01:48:35;28.35;;;19.85;;
30301;SDS011;17111;52.130;5.028;2023-12-14T01:51:02;26.52;;;19.23;;
30301;SDS011;17111;52.130;5.028;2023-12-14T01:53:29;28.00;;;18.90;;
30301;SDS011;17111;52.130;5.028;2023-12-14T01:55:57;26.38;;;18.50;;
30301;SDS011;17111;52.130;5.028;2023-12-14T01:58:24;27.67;;;19.33;;
30301;SDS011;17111;52.130;5.028;2023-12-14T02:00:55;25.63;;;18.15;;
30301;SDS011;17111;52.130;5.028;2023-12-14T02:03:48;26.73;;;18.85;;
30301;SDS011;17111;52.130;5.028;2023-12-14T02:06:17;26.55;;;18.10;;
30301;SDS011;17111;52.130;5.028;2023-12-14T02:08:43;26.33;;;17.90;;
30301;SDS011;17111;52.130;5.028;2023-12-14T02:11:10;26.58;;;17.80;;
30301;SDS011;17111;52.130;5.028;2023-12-14T02:13:37;24.13;;;17.10;;
30301;SDS011;17111;52.130;5.028;2023-12-14T02:16:04;24.75;;;17.63;;
30301;SDS011;17111;52.130;5.028;2023-12-14T02:18:31;24.85;;;17.42;;
30301;SDS011;17111;52.130;5.028;2023-12-14T02:20:58;25.83;;;16.95;;
30301;SDS011;17111;52.130;5.028;2023-12-14T02:23:24;23.80;;;16.45;;
30301;SDS011;17111;52.130;5.028;2023-12-14T02:25:51;24.63;;;16.75;;
30301;SDS011;17111;52.130;5.028;2023-12-14T02:28:18;21.83;;;15.52;;
30301;SDS011;17111;52.130;5.028;2023-12-14T02:30:44;24.08;;;16.13;;
30301;SDS011;17111;52.130;5.028;2023-12-14T02:33:11;22.52;;;15.77;;
30301;SDS011;17111;52.130;5.028;2023-12-14T02:35:38;22.85;;;15.32;;
30301;SDS011;17111;52.130;5.028;2023-12-14T02:38:04;23.55;;;15.68;;
30301;SDS011;17111;52.130;5.028;2023-12-14T02:40:31;20.10;;;13.90;;
30301;SDS011;17111;52.130;5.028;2023-12-14T02:42:58;20.15;;;13.88;;
30301;SDS011;17111;52.130;5.028;2023-12-14T02:45:24;21.50;;;15.23;;
30301;SDS011;17111;52.130;5.028;2023-12-14T02:47:51;22.52;;;15.30;;
30301;SDS011;17111;52.130;5.028;2023-12-14T02:50:20;20.90;;;14.85;;
30301;SDS011;17111;52.130;5.028;2023-12-14T02:52:47;18.48;;;13.45;;
30301;SDS011;17111;52.130;5.028;2023-12-14T02:55:14;20.58;;;14.30;;
30301;SDS011;17111;52.130;5.028;2023-12-14T02:57:40;21.17;;;14.57;;
30301;SDS011;17111;52.130;5.028;2023-12-14T03:00:07;20.50;;;13.77;;
30301;SDS011;17111;52.130;5.028;2023-12-14T03:02:34;20.33;;;13.88;;
30301;SDS011;17111;52.130;5.028;2023-12-14T03:05:01;17.73;;;13.27;;
30301;SDS011;17111;52.130;5.028;2023-12-14T03:07:28;18.65;;;12.60;;
30301;SDS011;17111;52.130;5.028;2023-12-14T03:09:55;19.23;;;13.05;;
30301;SDS011;17111;52.130;5.028;2023-12-14T03:12:21;17.90;;;12.75;;
30301;SDS011;17111;52.130;5.028;2023-12-14T03:14:48;18.55;;;12.20;;
30301;SDS011;17111;52.130;5.028;2023-12-14T03:17:14;17.63;;;12.32;;
30301;SDS011;17111;52.130;5.028;2023-12-14T03:19:42;16.40;;;12.05;;
30301;SDS011;17111;52.130;5.028;2023-12-14T03:22:09;17.70;;;12.43;;
30301;SDS011;17111;52.130;5.028;2023-12-14T03:24:36;19.77;;;12.35;;
30301;SDS011;17111;52.130;5.028;2023-12-14T03:27:03;18.35;;;12.25;;
30301;SDS011;17111;52.130;5.028;2023-12-14T03:29:30;16.42;;;11.40;;
30301;SDS011;17111;52.130;5.028;2023-12-14T03:31:57;15.93;;;10.57;;
30301;SDS011;17111;52.130;5.028;2023-12-14T03:34:24;17.17;;;11.35;;
30301;SDS011;17111;52.130;5.028;2023-12-14T03:36:51;16.45;;;11.18;;
30301;SDS011;17111;52.130;5.028;2023-12-14T03:39:17;16.95;;;11.50;;
30301;SDS011;17111;52.130;5.028;2023-12-14T03:41:44;16.52;;;11.80;;
30301;SDS011;17111;52.130;5.028;2023-12-14T03:44:11;15.90;;;11.57;;
30301;SDS011;17111;52.130;5.028;2023-12-14T03:46:38;15.15;;;10.43;;
30301;SDS011;17111;52.130;5.028;2023-12-14T03:49:05;16.67;;;11.30;;
30301;SDS011;17111;52.130;5.028;2023-12-14T03:51:31;14.70;;;10.43;;
30301;SDS011;17111;52.130;5.028;2023-12-14T03:53:58;14.88;;;10.55;;
30301;SDS011;17111;52.130;5.028;2023-12-14T03:56:25;14.50;;;10.57;;
30301;SDS011;17111;52.130;5.028;2023-12-14T03:58:52;13.48;;;9.82;;
30301;SDS011;17111;52.130;5.028;2023-12-14T04:01:19;13.55;;;9.30;;
30301;SDS011;17111;52.130;5.028;2023-12-14T04:03:47;14.80;;;10.35;;
30301;SDS011;17111;52.130;5.028;2023-12-14T04:06:14;14.70;;;10.00;;
30301;SDS011;17111;52.130;5.028;2023-12-14T04:08:41;13.75;;;9.80;;
30301;SDS011;17111;52.130;5.028;2023-12-14T04:11:08;14.57;;;9.80;;
30301;SDS011;17111;52.130;5.028;2023-12-14T04:13:35;13.13;;;9.68;;
30301;SDS011;17111;52.130;5.028;2023-12-14T04:16:02;11.85;;;8.93;;
30301;SDS011;17111;52.130;5.028;2023-12-14T04:18:30;13.38;;;9.07;;
30301;SDS011;17111;52.130;5.028;2023-12-14T04:20:57;11.30;;;8.23;;
30301;SDS011;17111;52.130;5.028;2023-12-14T04:23:23;13.30;;;9.50;;
30301;SDS011;17111;52.130;5.028;2023-12-14T04:25:50;13.48;;;9.48;;
30301;SDS011;17111;52.130;5.028;2023-12-14T04:28:17;12.75;;;8.32;;
30301;SDS011;17111;52.130;5.028;2023-12-14T04:30:43;11.45;;;8.13;;
30301;SDS011;17111;52.130;5.028;2023-12-14T04:33:10;11.70;;;8.75;;
30301;SDS011;17111;52.130;5.028;2023-12-14T04:35:37;12.70;;;8.48;;
30301;SDS011;17111;52.130;5.028;2023-12-14T04:38:04;9.80;;;7.13;;
30301;SDS011;17111;52.130;5.028;2023-12-14T04:40:31;11.57;;;8.20;;
30301;SDS011;17111;52.130;5.028;2023-12-14T04:42:59;10.02;;;7.47;;
30301;SDS011;17111;52.130;5.028;2023-12-14T04:45:26;11.77;;;7.97;;
30301;SDS011;17111;52.130;5.028;2023-12-14T04:47:52;10.40;;;7.43;;
30301;SDS011;17111;52.130;5.028;2023-12-14T04:50:19;12.23;;;8.18;;
30301;SDS011;17111;52.130;5.028;2023-12-14T04:52:46;12.05;;;7.85;;
30301;SDS011;17111;52.130;5.028;2023-12-14T04:55:13;11.38;;;7.93;;
30301;SDS011;17111;52.130;5.028;2023-12-14T04:57:39;10.70;;;7.68;;
30301;SDS011;17111;52.130;5.028;2023-12-14T05:00:06;9.40;;;7.05;;
30301;SDS011;17111;52.130;5.028;2023-12-14T05:02:34;10.00;;;7.22;;
30301;SDS011;17111;52.130;5.028;2023-12-14T05:05:01;9.20;;;6.60;;
30301;SDS011;17111;52.130;5.028;2023-12-14T05:07:28;10.32;;;7.32;;
30301;SDS011;17111;52.130;5.028;2023-12-14T05:09:56;10.30;;;7.00;;
30301;SDS011;17111;52.130;5.028;2023-12-14T05:12:23;9.10;;;6.47;;
30301;SDS011;17111;52.130;5.028;2023-12-14T05:14:51;9.50;;;6.78;;
30301;SDS011;17111;52.130;5.028;2023-12-14T05:17:18;9.77;;;7.00;;
30301;SDS011;17111;52.130;5.028;2023-12-14T05:19:45;9.88;;;6.82;;
30301;SDS011;17111;52.130;5.028;2023-12-14T05:22:12;9.45;;;7.13;;
30301;SDS011;17111;52.130;5.028;2023-12-14T05:24:39;10.38;;;7.07;;
30301;SDS011;17111;52.130;5.028;2023-12-14T05:27:05;11.07;;;7.68;;
30301;SDS011;17111;52.130;5.028;2023-12-14T05:29:32;11.32;;;8.13;;
30301;SDS011;17111;52.130;5.028;2023-12-14T05:31:59;11.23;;;8.20;;
30301;SDS011;17111;52.130;5.028;2023-12-14T05:34:26;10.38;;;7.72;;
30301;SDS011;17111;52.130;5.028;2023-12-14T05:36:53;9.85;;;6.85;;
30301;SDS011;17111;52.130;5.028;2023-12-14T05:39:19;10.70;;;7.68;;
30301;SDS011;17111;52.130;5.028;2023-12-14T05:41:46;12.68;;;8.10;;
30301;SDS011;17111;52.130;5.028;2023-12-14T05:44:13;10.95;;;7.75;;
30301;SDS011;17111;52.130;5.028;2023-12-14T05:46:39;11.27;;;8.05;;
30301;SDS011;17111;52.130;5.028;2023-12-14T05:49:06;12.15;;;8.13;;
30301;SDS011;17111;52.130;5.028;2023-12-14T05:51:33;11.60;;;8.20;;
30301;SDS011;17111;52.130;5.028;2023-12-14T05:54:00;12.23;;;8.75;;
30301;SDS011;17111;52.130;5.028;2023-12-14T05:56:26;10.95;;;7.90;;
30301;SDS011;17111;52.130;5.028;2023-12-14T05:58:53;12.55;;;8.52;;
30301;SDS011;17111;52.130;5.028;2023-12-14T06:01:20;11.70;;;8.57;;
30301;SDS011;17111;52.130;5.028;2023-12-14T06:03:47;10.98;;;8.30;;
30301;SDS011;17111;52.130;5.028;2023-12-14T06:06:13;12.02;;;8.10;;
30301;SDS011;17111;52.130;5.028;2023-12-14T06:08:41;11.60;;;8.10;;
30301;SDS011;17111;52.130;5.028;2023-12-14T06:11:08;12.25;;;8.38;;
30301;SDS011;17111;52.130;5.028;2023-12-14T06:13:35;12.18;;;8.02;;
30301;SDS011;17111;52.130;5.028;2023-12-14T06:16:01;11.63;;;8.32;;
30301;SDS011;17111;52.130;5.028;2023-12-14T06:18:29;11.30;;;8.00;;
30301;SDS011;17111;52.130;5.028;2023-12-14T06:20:56;11.68;;;7.80;;
30301;SDS011;17111;52.130;5.028;2023-12-14T06:23:23;11.30;;;8.02;;
30301;SDS011;17111;52.130;5.028;2023-12-14T06:25:51;12.23;;;8.00;;
30301;SDS011;17111;52.130;5.028;2023-12-14T06:28:18;11.75;;;7.75;;
30301;SDS011;17111;52.130;5.028;2023-12-14T06:30:45;12.90;;;7.72;;
30301;SDS011;17111;52.130;5.028;2023-12-14T06:33:11;12.98;;;8.63;;
30301;SDS011;17111;52.130;5.028;2023-12-14T06:35:38;11.50;;;8.15;;
30301;SDS011;17111;52.130;5.028;2023-12-14T06:38:05;11.93;;;8.45;;
30301;SDS011;17111;52.130;5.028;2023-12-14T06:40:31;11.43;;;8.27;;
30301;SDS011;17111;52.130;5.028;2023-12-14T06:42:58;11.85;;;8.15;;
30301;SDS011;17111;52.130;5.028;2023-12-14T06:45:24;12.25;;;8.40;;
30301;SDS011;17111;52.130;5.028;2023-12-14T06:47:51;13.32;;;8.70;;
30301;SDS011;17111;52.130;5.028;2023-12-14T06:50:18;12.07;;;8.40;;
30301;SDS011;17111;52.130;5.028;2023-12-14T06:52:44;11.40;;;7.93;;
30301;SDS011;17111;52.130;5.028;2023-12-14T06:55:11;12.60;;;8.50;;
30301;SDS011;17111;52.130;5.028;2023-12-14T06:57:38;11.85;;;8.60;;
30301;SDS011;17111;52.130;5.028;2023-12-14T07:00:05;12.27;;;8.30;;
30301;SDS011;17111;52.130;5.028;2023-12-14T07:02:32;10.52;;;7.80;;
30301;SDS011;17111;52.130;5.028;2023-12-14T07:04:59;11.48;;;8.02;;
30301;SDS011;17111;52.130;5.028;2023-12-14T07:07:26;10.50;;;7.80;;
30301;SDS011;17111;52.130;5.028;2023-12-14T07:09:53;10.40;;;7.97;;
30301;SDS011;17111;52.130;5.028;2023-12-14T07:12:19;12.02;;;8.23;;
30301;SDS011;17111;52.130;5.028;2023-12-14T07:14:46;9.88;;;7.38;;
30301;SDS011;17111;52.130;5.028;2023-12-14T07:17:12;10.90;;;7.53;;
30301;SDS011;17111;52.130;5.028;2023-12-14T07:19:39;10.77;;;7.68;;
30301;SDS011;17111;52.130;5.028;2023-12-14T07:22:06;10.18;;;7.63;;
30301;SDS011;17111;52.130;5.028;2023-12-14T07:24:32;11.25;;;7.80;;
30301;SDS011;17111;52.130;5.028;2023-12-14T07:27:14;10.90;;;7.57;;
30301;SDS011;17111;52.130;5.028;2023-12-14T07:29:40;10.60;;;7.70;;
30301;SDS011;17111;52.130;5.028;2023-12-14T07:32:07;10.52;;;7.20;;
30301;SDS011;17111;52.130;5.028;2023-12-14T07:34:34;11.95;;;6.93;;
30301;SDS011;17111;52.130;5.028;2023-12-14T07:37:00;12.45;;;7.82;;
30301;SDS011;17111;52.130;5.028;2023-12-14T07:39:27;11.40;;;7.65;;
30301;SDS011;17111;52.130;5.028;2023-12-14T07:41:54;9.50;;;6.78;;
30301;SDS011;17111;52.130;5.028;2023-12-14T07:44:20;9.35;;;6.60;;
30301;SDS011;17111;52.130;5.028;2023-12-14T07:46:48;13.55;;;7.80;;
30301;SDS011;17111;52.130;5.028;2023-12-14T07:49:14;9.95;;;7.05;;
30301;SDS011;17111;52.130;5.028;2023-12-14T07:51:41;10.18;;;6.80;;
30301;SDS011;17111;52.130;5.028;2023-12-14T07:54:08;9.65;;;6.70;;
30301;SDS011;17111;52.130;5.028;2023-12-14T07:56:34;10.10;;;6.63;;
30301;SDS011;17111;52.130;5.028;2023-12-14T07:59:01;9.70;;;6.90;;
30301;SDS011;17111;52.130;5.028;2023-12-14T08:01:29;10.65;;;6.85;;
30301;SDS011;17111;52.130;5.028;2023-12-14T08:03:56;10.02;;;6.68;;
30301;SDS011;17111;52.130;5.028;2023-12-14T08:06:22;8.85;;;6.40;;
30301;SDS011;17111;52.130;5.028;2023-12-14T08:08:49;8.35;;;6.03;;
30301;SDS011;17111;52.130;5.028;2023-12-14T08:11:16;9.43;;;6.55;;
30301;SDS011;17111;52.130;5.028;2023-12-14T08:13:42;8.98;;;6.13;;
30301;SDS011;17111;52.130;5.028;2023-12-14T08:16:09;8.80;;;6.28;;
30301;SDS011;17111;52.130;5.028;2023-12-14T08:18:37;9.60;;;6.75;;
30301;SDS011;17111;52.130;5.028;2023-12-14T08:21:04;9.15;;;5.82;;
30301;SDS011;17111;52.130;5.028;2023-12-14T08:23:31;10.20;;;6.65;;
30301;SDS011;17111;52.130;5.028;2023-12-14T08:25:57;10.93;;;6.82;;
30301;SDS011;17111;52.130;5.028;2023-12-14T08:28:25;8.10;;;5.60;;
30301;SDS011;17111;52.130;5.028;2023-12-14T08:30:51;9.05;;;5.78;;
30301;SDS011;17111;52.130;5.028;2023-12-14T08:33:18;8.07;;;5.82;;
30301;SDS011;17111;52.130;5.028;2023-12-14T08:35:45;8.50;;;5.85;;
30301;SDS011;17111;52.130;5.028;2023-12-14T08:38:11;8.20;;;6.00;;
30301;SDS011;17111;52.130;5.028;2023-12-14T08:40:38;9.38;;;6.00;;
30301;SDS011;17111;52.130;5.028;2023-12-14T08:43:05;8.25;;;5.60;;
30301;SDS011;17111;52.130;5.028;2023-12-14T08:45:32;7.50;;;5.32;;
30301;SDS011;17111;52.130;5.028;2023-12-14T08:47:59;7.65;;;5.50;;
30301;SDS011;17111;52.130;5.028;2023-12-14T08:50:25;7.60;;;5.50;;
30301;SDS011;17111;52.130;5.028;2023-12-14T08:52:52;6.82;;;5.05;;
30301;SDS011;17111;52.130;5.028;2023-12-14T08:55:21;8.18;;;5.68;;
30301;SDS011;17111;52.130;5.028;2023-12-14T08:57:48;7.72;;;5.50;;
30301;SDS011;17111;52.130;5.028;2023-12-14T09:00:14;7.57;;;5.70;;
30301;SDS011;17111;52.130;5.028;2023-12-14T09:02:42;7.72;;;5.32;;
30301;SDS011;17111;52.130;5.028;2023-12-14T09:05:10;7.10;;;5.32;;
30301;SDS011;17111;52.130;5.028;2023-12-14T09:07:42;6.72;;;5.00;;
30301;SDS011;17111;52.130;5.028;2023-12-14T09:10:09;6.13;;;4.72;;
30301;SDS011;17111;52.130;5.028;2023-12-14T09:12:35;7.07;;;5.03;;
30301;SDS011;17111;52.130;5.028;2023-12-14T09:15:03;6.28;;;4.78;;
30301;SDS011;17111;52.130;5.028;2023-12-14T09:17:30;6.65;;;5.22;;
30301;SDS011;17111;52.130;5.028;2023-12-14T09:20:03;7.87;;;5.37;;
30301;SDS011;17111;52.130;5.028;2023-12-14T09:22:33;7.10;;;4.55;;
30301;SDS011;17111;52.130;5.028;2023-12-14T09:25:00;6.80;;;4.53;;
30301;SDS011;17111;52.130;5.028;2023-12-14T09:27:27;7.32;;;4.97;;
30301;SDS011;17111;52.130;5.028;2023-12-14T09:29:53;6.38;;;4.55;;
30301;SDS011;17111;52.130;5.028;2023-12-14T09:32:20;6.38;;;4.47;;
30301;SDS011;17111;52.130;5.028;2023-12-14T09:34:46;5.97;;;3.97;;
30301;SDS011;17111;52.130;5.028;2023-12-14T09:37:13;7.15;;;4.63;;
30301;SDS011;17111;52.130;5.028;2023-12-14T09:39:40;5.45;;;4.10;;
30301;SDS011;17111;52.130;5.028;2023-12-14T09:42:07;6.28;;;4.57;;
30301;SDS011;17111;52.130;5.028;2023-12-14T09:44:35;5.97;;;4.63;;
30301;SDS011;17111;52.130;5.028;2023-12-14T09:47:04;6.25;;;4.15;;
30301;SDS011;17111;52.130;5.028;2023-12-14T09:49:31;7.32;;;4.32;;
30301;SDS011;17111;52.130;5.028;2023-12-14T09:51:59;6.93;;;4.20;;
30301;SDS011;17111;52.130;5.028;2023-12-14T09:54:26;5.70;;;4.43;;
30301;SDS011;17111;52.130;5.028;2023-12-14T09:56:53;6.22;;;4.20;;
30301;SDS011;17111;52.130;5.028;2023-12-14T09:59:20;5.72;;;3.92;;
30301;SDS011;17111;52.130;5.028;2023-12-14T10:01:48;6.50;;;4.30;;
30301;SDS011;17111;52.130;5.028;2023-12-14T10:04:18;7.55;;;4.80;;
30301;SDS011;17111;52.130;5.028;2023-12-14T10:06:47;5.63;;;3.85;;
30301;SDS011;17111;52.130;5.028;2023-12-14T10:09:14;6.90;;;3.90;;
30301;SDS011;17111;52.130;5.028;2023-12-14T10:11:43;5.28;;;3.50;;
30301;SDS011;17111;52.130;5.028;2023-12-14T10:14:20;5.70;;;3.80;;
30301;SDS011;17111;52.130;5.028;2023-12-14T10:16:48;6.05;;;3.92;;
30301;SDS011;17111;52.130;5.028;2023-12-14T10:19:18;5.18;;;3.50;;
30301;SDS011;17111;52.130;5.028;2023-12-14T10:21:45;5.68;;;3.65;;
30301;SDS011;17111;52.130;5.028;2023-12-14T10:24:13;5.95;;;4.00;;
30301;SDS011;17111;52.130;5.028;2023-12-14T10:26:45;5.97;;;3.35;;
30301;SDS011;17111;52.130;5.028;2023-12-14T10:29:12;6.38;;;4.07;;
30301;SDS011;17111;52.130;5.028;2023-12-14T10:31:40;5.40;;;3.30;;
30301;SDS011;17111;52.130;5.028;2023-12-14T10:34:07;5.72;;;3.65;;
30301;SDS011;17111;52.130;5.028;2023-12-14T10:36:33;6.28;;;4.15;;
30301;SDS011;17111;52.130;5.028;2023-12-14T10:39:01;4.97;;;3.17;;
30301;SDS011;17111;52.130;5.028;2023-12-14T10:41:29;9.65;;;3.70;;
30301;SDS011;17111;52.130;5.028;2023-12-14T10:43:58;6.72;;;4.10;;
30301;SDS011;17111;52.130;5.028;2023-12-14T10:46:49;6.05;;;3.63;;
30301;SDS011;17111;52.130;5.028;2023-12-14T10:49:19;5.20;;;3.33;;
30301;SDS011;17111;52.130;5.028;2023-12-14T10:51:46;7.25;;;4.03;;
30301;SDS011;17111;52.130;5.028;2023-12-14T10:54:14;5.00;;;3.60;;
30301;SDS011;17111;52.130;5.028;2023-12-14T10:56:42;6.20;;;3.65;;
30301;SDS011;17111;52.130;5.028;2023-12-14T10:59:09;6.35;;;3.83;;
30301;SDS011;17111;52.130;5.028;2023-12-14T11:01:35;4.40;;;3.35;;
30301;SDS011;17111;52.130;5.028;2023-12-14T11:04:05;4.88;;;3.30;;
30301;SDS011;17111;52.130;5.028;2023-12-14T11:06:35;5.25;;;3.08;;
30301;SDS011;17111;52.130;5.028;2023-12-14T11:09:05;5.00;;;2.72;;
30301;SDS011;17111;52.130;5.028;2023-12-14T11:11:43;6.28;;;3.13;;
30301;SDS011;17111;52.130;5.028;2023-12-14T11:14:20;4.47;;;3.20;;
30301;SDS011;17111;52.130;5.028;2023-12-14T11:16:48;5.22;;;3.35;;
30301;SDS011;17111;52.130;5.028;2023-12-14T11:21:48;4.40;;;3.20;;
30301;SDS011;17111;52.130;5.028;2023-12-14T11:24:34;4.72;;;3.10;;
30301;SDS011;17111;52.130;5.028;2023-12-14T11:27:08;4.13;;;2.40;;
30301;SDS011;17111;52.130;5.028;2023-12-14T11:29:38;4.22;;;3.13;;
30301;SDS011;17111;52.130;5.028;2023-12-14T11:32:06;4.75;;;3.08;;
30301;SDS011;17111;52.130;5.028;2023-12-14T11:34:33;5.53;;;3.50;;
30301;SDS011;17111;52.130;5.028;2023-12-14T11:37:00;4.10;;;3.00;;
30301;SDS011;17111;52.130;5.028;2023-12-14T11:39:29;4.07;;;2.95;;
30301;SDS011;17111;52.130;5.028;2023-12-14T11:42:01;3.75;;;2.95;;
30301;SDS011;17111;52.130;5.028;2023-12-14T11:44:29;4.82;;;2.60;;
30301;SDS011;17111;52.130;5.028;2023-12-14T11:46:56;4.05;;;2.83;;
30301;SDS011;17111;52.130;5.028;2023-12-14T11:49:24;4.00;;;2.80;;
30301;SDS011;17111;52.130;5.028;2023-12-14T11:51:53;4.30;;;2.63;;
30301;SDS011;17111;52.130;5.028;2023-12-14T11:54:21;3.90;;;2.78;;
30301;SDS011;17111;52.130;5.028;2023-12-14T11:56:48;5.60;;;3.17;;
30301;SDS011;17111;52.130;5.028;2023-12-14T11:59:18;3.88;;;2.63;;
30301;SDS011;17111;52.130;5.028;2023-12-14T12:01:55;4.70;;;3.05;;
30301;SDS011;17111;52.130;5.028;2023-12-14T12:04:23;4.70;;;2.92;;
30301;SDS011;17111;52.130;5.028;2023-12-14T12:07:00;4.22;;;2.88;;
30301;SDS011;17111;52.130;5.028;2023-12-14T12:09:35;3.90;;;2.55;;
30301;SDS011;17111;52.130;5.028;2023-12-14T12:12:10;4.93;;;3.03;;
30301;SDS011;17111;52.130;5.028;2023-12-14T12:14:38;3.78;;;2.55;;
30301;SDS011;17111;52.130;5.028;2023-12-14T12:17:06;3.83;;;2.50;;
30301;SDS011;17111;52.130;5.028;2023-12-14T12:19:33;4.13;;;2.78;;
30301;SDS011;17111;52.130;5.028;2023-12-14T12:22:01;4.32;;;2.78;;
30301;SDS011;17111;52.130;5.028;2023-12-14T12:24:29;3.55;;;2.33;;
30301;SDS011;17111;52.130;5.028;2023-12-14T12:26:59;3.65;;;2.35;;
30301;SDS011;17111;52.130;5.028;2023-12-14T12:29:26;3.13;;;2.45;;
30301;SDS011;17111;52.130;5.028;2023-12-14T12:31:52;3.17;;;2.20;;
30301;SDS011;17111;52.130;5.028;2023-12-14T12:34:19;2.88;;;2.35;;
30301;SDS011;17111;52.130;5.028;2023-12-14T12:36:46;4.47;;;2.58;;
30301;SDS011;17111;52.130;5.028;2023-12-14T12:39:13;4.47;;;3.35;;
30301;SDS011;17111;52.130;5.028;2023-12-14T12:41:39;2.78;;;2.33;;
30301;SDS011;17111;52.130;5.028;2023-12-14T12:44:06;3.85;;;2.50;;
30301;SDS011;17111;52.130;5.028;2023-12-14T12:46:35;5.13;;;2.72;;
30301;SDS011;17111;52.130;5.028;2023-12-14T12:49:02;3.65;;;2.80;;
30301;SDS011;17111;52.130;5.028;2023-12-14T12:51:31;4.18;;;2.35;;
30301;SDS011;17111;52.130;5.028;2023-12-14T12:53:58;2.92;;;2.20;;
30301;SDS011;17111;52.130;5.028;2023-12-14T12:56:38;3.60;;;2.58;;
30301;SDS011;17111;52.130;5.028;2023-12-14T12:59:04;4.50;;;2.90;;
30301;SDS011;17111;52.130;5.028;2023-12-14T13:01:35;3.00;;;2.17;;
30301;SDS011;17111;52.130;5.028;2023-12-14T13:04:02;4.30;;;2.70;;
30301;SDS011;17111;52.130;5.028;2023-12-14T13:06:30;4.30;;;2.30;;
30301;SDS011;17111;52.130;5.028;2023-12-14T13:08:57;3.97;;;2.67;;
30301;SDS011;17111;52.130;5.028;2023-12-14T13:11:24;3.25;;;2.40;;
30301;SDS011;17111;52.130;5.028;2023-12-14T13:13:51;2.75;;;2.20;;
30301;SDS011;17111;52.130;5.028;2023-12-14T13:16:18;3.13;;;2.50;;
30301;SDS011;17111;52.130;5.028;2023-12-14T13:18:45;4.60;;;2.92;;
30301;SDS011;17111;52.130;5.028;2023-12-14T13:21:12;4.13;;;2.55;;
30301;SDS011;17111;52.130;5.028;2023-12-14T13:23:39;4.20;;;2.85;;
30301;SDS011;17111;52.130;5.028;2023-12-14T13:26:06;3.90;;;2.63;;
30301;SDS011;17111;52.130;5.028;2023-12-14T13:28:34;4.68;;;3.03;;
30301;SDS011;17111;52.130;5.028;2023-12-14T13:31:00;2.97;;;2.60;;
30301;SDS011;17111;52.130;5.028;2023-12-14T13:33:27;3.08;;;2.42;;
30301;SDS011;17111;52.130;5.028;2023-12-14T13:35:54;3.05;;;2.40;;
30301;SDS011;17111;52.130;5.028;2023-12-14T13:38:21;3.35;;;2.25;;
30301;SDS011;17111;52.130;5.028;2023-12-14T13:40:48;3.90;;;2.53;;
30301;SDS011;17111;52.130;5.028;2023-12-14T13:43:15;3.17;;;2.38;;
30301;SDS011;17111;52.130;5.028;2023-12-14T13:45:41;3.33;;;2.45;;
30301;SDS011;17111;52.130;5.028;2023-12-14T13:48:08;4.50;;;2.42;;
30301;SDS011;17111;52.130;5.028;2023-12-14T13:50:35;4.57;;;2.53;;
30301;SDS011;17111;52.130;5.028;2023-12-14T13:53:02;4.35;;;2.67;;
30301;SDS011;17111;52.130;5.028;2023-12-14T13:55:29;3.25;;;2.58;;
30301;SDS011;17111;52.130;5.028;2023-12-14T13:57:56;3.95;;;2.60;;
30301;SDS011;17111;52.130;5.028;2023-12-14T14:00:24;5.03;;;2.67;;
30301;SDS011;17111;52.130;5.028;2023-12-14T14:02:51;5.72;;;2.55;;
30301;SDS011;17111;52.130;5.028;2023-12-14T14:05:17;4.03;;;2.78;;
30301;SDS011;17111;52.130;5.028;2023-12-14T14:07:44;3.60;;;2.80;;
30301;SDS011;17111;52.130;5.028;2023-12-14T14:10:11;4.70;;;2.63;;
30301;SDS011;17111;52.130;5.028;2023-12-14T14:12:38;3.63;;;2.75;;
30301;SDS011;17111;52.130;5.028;2023-12-14T14:15:05;5.22;;;3.88;;
30301;SDS011;17111;52.130;5.028;2023-12-14T14:17:32;5.88;;;4.97;;
30301;SDS011;17111;52.130;5.028;2023-12-14T14:19:59;11.32;;;6.13;;
30301;SDS011;17111;52.130;5.028;2023-12-14T14:22:26;10.70;;;7.10;;
30301;SDS011;17111;52.130;5.028;2023-12-14T14:24:53;11.02;;;7.50;;
30301;SDS011;17111;52.130;5.028;2023-12-14T14:27:19;13.50;;;8.48;;
30301;SDS011;17111;52.130;5.028;2023-12-14T14:29:46;12.00;;;8.63;;
30301;SDS011;17111;52.130;5.028;2023-12-14T14:32:13;11.65;;;8.40;;
30301;SDS011;17111;52.130;5.028;2023-12-14T14:34:42;12.95;;;8.90;;
30301;SDS011;17111;52.130;5.028;2023-12-14T14:37:08;14.10;;;9.43;;
30301;SDS011;17111;52.130;5.028;2023-12-14T14:39:35;12.70;;;9.35;;